Airfield :







YOU CAN JOIN US ON...

 
LOGIN :

Register | Disclaimer

   EN    FR    IT 

 









Legend :    VFR   Marginal VFR   IFR   Intensive IFR   Very Intensive IFR
Visi :
Ceiling :
>= 8 km
>= 3000ft
5 to 8 km
1000 to 3000 ft
1500m to 5 km
500 to 1000 ft
800 to 1500m
200 to 500 ft
< 800m
< 200 ft
Symbols :   Thunderstorms  Fog  Heavy snow  Heavy precipitations  Wind > 20 kt






- Airport Elevation : 9 ft
- IATA code : SJU


TJSJ - Luis Munoz Marin Int.

CURRENT METAR :
  • 220056Z 08011KT 10SM FEW022 SCT055 BKN080 28/24 A3010 RMK AO2 SLP192 T02780239

EXPIRED METARs :
  • 212356Z 07012KT 10SM FEW024 SCT060 BKN085 28/24 A3009 RMK AO2 RAB13E24 SLP188 P0000 60000 T02780244 10306 20272 53012
  • 212256Z 07011KT 9SM SCT018 SCT045 BKN095 28/24 A3007 RMK AO2 SLP182 VCSH S HZ ALQDS T02780244

TAF TJSJ
Valid from the 22 at 00:00 until the 23 at 00:00 UTC


212340Z 2200/2224 09011KT P6SM SCT040
FM221300 07018KT P6SM SCT030 SCT040
FM222200 09012KT P6SM FEW035 SCT050
TJZS FIR / North America



MET'MAP, your aeronautical weather chart ! - Copyright ORBIFLY December 2007 - Disclaimer

ORBIFLY MET'MAP TEAM :

Programming & Development : Alexandra Zaïnal
Concept & original design : Baudouin d'Aumeries
Assistance for programming : Marc-Olivier Méhu
Technical & hardware support : Manuel Goepfert

Contact : metmap@orbifly.com




SOURCES & CREDITS :

   NOAA